sensor_id;sensor_type;location;lat;lon;timestamp;temperature;humidity
19586;DHT22;9939;49.246;9.106;2023-02-01T00:02:12;4.60;99.90
19586;DHT22;9939;49.246;9.106;2023-02-01T00:04:39;4.60;99.90
19586;DHT22;9939;49.246;9.106;2023-02-01T00:07:06;4.50;99.90
19586;DHT22;9939;49.246;9.106;2023-02-01T00:09:33;4.60;99.90
19586;DHT22;9939;49.246;9.106;2023-02-01T00:12:00;4.60;99.90
19586;DHT22;9939;49.246;9.106;2023-02-01T00:14:28;4.50;99.90
19586;DHT22;9939;49.246;9.106;2023-02-01T00:16:55;4.60;99.90
19586;DHT22;9939;49.246;9.106;2023-02-01T00:19:22;4.60;99.90
19586;DHT22;9939;49.246;9.106;2023-02-01T00:21:48;4.60;99.90
19586;DHT22;9939;49.246;9.106;2023-02-01T00:24:15;4.60;99.90
19586;DHT22;9939;49.246;9.106;2023-02-01T00:26:43;4.60;99.90
19586;DHT22;9939;49.246;9.106;2023-02-01T00:29:12;4.70;99.90
19586;DHT22;9939;49.246;9.106;2023-02-01T00:31:39;4.60;99.90
19586;DHT22;9939;49.246;9.106;2023-02-01T00:34:06;4.60;99.90
19586;DHT22;9939;49.246;9.106;2023-02-01T00:36:33;4.60;99.90
19586;DHT22;9939;49.246;9.106;2023-02-01T00:39:00;4.60;99.90
19586;DHT22;9939;49.246;9.106;2023-02-01T00:41:27;4.70;99.90
19586;DHT22;9939;49.246;9.106;2023-02-01T00:43:54;4.70;99.90
19586;DHT22;9939;49.246;9.106;2023-02-01T00:46:20;4.60;99.90
19586;DHT22;9939;49.246;9.106;2023-02-01T00:48:48;4.60;99.90
19586;DHT22;9939;49.246;9.106;2023-02-01T00:51:16;4.70;99.90
19586;DHT22;9939;49.246;9.106;2023-02-01T00:53:44;4.70;99.90
19586;DHT22;9939;49.246;9.106;2023-02-01T00:56:11;4.70;99.90
19586;DHT22;9939;49.246;9.106;2023-02-01T00:58:39;4.70;99.90
19586;DHT22;9939;49.246;9.106;2023-02-01T01:01:10;4.80;99.90
19586;DHT22;9939;49.246;9.106;2023-02-01T01:03:39;4.80;99.90
19586;DHT22;9939;49.246;9.106;2023-02-01T01:06:08;4.70;99.90
19586;DHT22;9939;49.246;9.106;2023-02-01T01:08:36;4.70;99.90
19586;DHT22;9939;49.246;9.106;2023-02-01T01:11:04;4.80;99.90
19586;DHT22;9939;49.246;9.106;2023-02-01T01:13:30;4.70;99.90
19586;DHT22;9939;49.246;9.106;2023-02-01T01:15:59;4.80;99.90
19586;DHT22;9939;49.246;9.106;2023-02-01T01:18:28;4.80;99.90
19586;DHT22;9939;49.246;9.106;2023-02-01T01:20:55;4.80;99.90
19586;DHT22;9939;49.246;9.106;2023-02-01T01:23:22;4.80;99.90
19586;DHT22;9939;49.246;9.106;2023-02-01T01:25:49;4.80;99.90
19586;DHT22;9939;49.246;9.106;2023-02-01T01:28:16;4.80;99.90
19586;DHT22;9939;49.246;9.106;2023-02-01T01:30:43;4.90;99.90
19586;DHT22;9939;49.246;9.106;2023-02-01T01:33:10;4.80;99.90
19586;DHT22;9939;49.246;9.106;2023-02-01T01:35:37;4.80;99.90
19586;DHT22;9939;49.246;9.106;2023-02-01T01:38:03;4.90;99.90
19586;DHT22;9939;49.246;9.106;2023-02-01T01:40:31;4.90;99.90
19586;DHT22;9939;49.246;9.106;2023-02-01T01:42:58;4.90;99.90
19586;DHT22;9939;49.246;9.106;2023-02-01T01:45:28;4.90;99.90
19586;DHT22;9939;49.246;9.106;2023-02-01T01:47:56;4.90;99.90
19586;DHT22;9939;49.246;9.106;2023-02-01T01:50:26;4.80;99.90
19586;DHT22;9939;49.246;9.106;2023-02-01T01:52:54;4.90;99.90
19586;DHT22;9939;49.246;9.106;2023-02-01T01:55:22;4.90;99.90
19586;DHT22;9939;49.246;9.106;2023-02-01T01:57:52;4.90;99.90
19586;DHT22;9939;49.246;9.106;2023-02-01T02:00:20;4.90;99.90
19586;DHT22;9939;49.246;9.106;2023-02-01T02:02:53;5.00;99.90
19586;DHT22;9939;49.246;9.106;2023-02-01T02:05:21;4.90;99.90
19586;DHT22;9939;49.246;9.106;2023-02-01T02:07:49;4.90;99.90
19586;DHT22;9939;49.246;9.106;2023-02-01T02:10:17;4.80;99.90
19586;DHT22;9939;49.246;9.106;2023-02-01T02:12:45;5.00;99.90
19586;DHT22;9939;49.246;9.106;2023-02-01T02:15:14;5.00;99.90
19586;DHT22;9939;49.246;9.106;2023-02-01T02:35:27;4.90;99.90
19586;DHT22;9939;49.246;9.106;2023-02-01T02:38:18;4.90;99.90
19586;DHT22;9939;49.246;9.106;2023-02-01T02:43:19;4.90;99.90
19586;DHT22;9939;49.246;9.106;2023-02-01T02:46:25;4.90;99.90
19586;DHT22;9939;49.246;9.106;2023-02-01T02:51:46;4.90;99.90
19586;DHT22;9939;49.246;9.106;2023-02-01T02:54:35;4.90;99.90
19586;DHT22;9939;49.246;9.106;2023-02-01T02:57:20;4.90;99.90
19586;DHT22;9939;49.246;9.106;2023-02-01T03:00:08;4.90;99.90
19586;DHT22;9939;49.246;9.106;2023-02-01T03:02:54;4.90;99.90
19586;DHT22;9939;49.246;9.106;2023-02-01T03:05:42;4.90;99.90
19586;DHT22;9939;49.246;9.106;2023-02-01T03:08:20;4.90;99.90
19586;DHT22;9939;49.246;9.106;2023-02-01T03:13:21;4.90;99.90
19586;DHT22;9939;49.246;9.106;2023-02-01T03:15:53;4.90;99.90
19586;DHT22;9939;49.246;9.106;2023-02-01T03:18:25;4.90;99.90
19586;DHT22;9939;49.246;9.106;2023-02-01T03:20:53;5.00;99.90
19586;DHT22;9939;49.246;9.106;2023-02-01T03:23:23;4.90;99.90
19586;DHT22;9939;49.246;9.106;2023-02-01T03:25:52;4.90;99.90
19586;DHT22;9939;49.246;9.106;2023-02-01T03:28:20;4.90;99.90
19586;DHT22;9939;49.246;9.106;2023-02-01T03:30:49;4.90;99.90
19586;DHT22;9939;49.246;9.106;2023-02-01T03:33:20;4.90;99.90
19586;DHT22;9939;49.246;9.106;2023-02-01T03:38:38;4.90;99.90
19586;DHT22;9939;49.246;9.106;2023-02-01T03:41:23;4.90;99.90
19586;DHT22;9939;49.246;9.106;2023-02-01T03:43:55;4.90;99.90
19586;DHT22;9939;49.246;9.106;2023-02-01T03:46:30;4.90;99.90
19586;DHT22;9939;49.246;9.106;2023-02-01T03:49:05;5.00;99.90
19586;DHT22;9939;49.246;9.106;2023-02-01T03:51:35;5.00;99.90
19586;DHT22;9939;49.246;9.106;2023-02-01T03:54:03;4.90;99.90
19586;DHT22;9939;49.246;9.106;2023-02-01T03:56:31;4.90;99.90
19586;DHT22;9939;49.246;9.106;2023-02-01T03:58:58;4.90;99.90
19586;DHT22;9939;49.246;9.106;2023-02-01T04:01:29;4.90;99.90
19586;DHT22;9939;49.246;9.106;2023-02-01T04:03:57;4.90;99.90
19586;DHT22;9939;49.246;9.106;2023-02-01T04:06:24;4.90;99.90
19586;DHT22;9939;49.246;9.106;2023-02-01T04:08:53;5.00;99.90
19586;DHT22;9939;49.246;9.106;2023-02-01T04:11:20;4.90;99.90
19586;DHT22;9939;49.246;9.106;2023-02-01T04:13:47;5.00;99.90
19586;DHT22;9939;49.246;9.106;2023-02-01T04:16:14;5.00;99.90
19586;DHT22;9939;49.246;9.106;2023-02-01T04:18:40;4.90;99.90
19586;DHT22;9939;49.246;9.106;2023-02-01T04:21:07;5.00;99.90
19586;DHT22;9939;49.246;9.106;2023-02-01T04:23:34;4.90;99.90
19586;DHT22;9939;49.246;9.106;2023-02-01T04:26:03;5.00;99.90
19586;DHT22;9939;49.246;9.106;2023-02-01T04:28:30;5.00;99.90
19586;DHT22;9939;49.246;9.106;2023-02-01T04:30:57;5.00;99.90
19586;DHT22;9939;49.246;9.106;2023-02-01T04:33:24;5.00;99.90
19586;DHT22;9939;49.246;9.106;2023-02-01T04:35:51;5.00;99.90
19586;DHT22;9939;49.246;9.106;2023-02-01T04:38:18;4.90;99.90
19586;DHT22;9939;49.246;9.106;2023-02-01T04:40:46;5.00;99.90
19586;DHT22;9939;49.246;9.106;2023-02-01T04:43:13;4.90;99.90
19586;DHT22;9939;49.246;9.106;2023-02-01T04:45:39;5.00;99.90
19586;DHT22;9939;49.246;9.106;2023-02-01T04:48:06;4.90;99.90
19586;DHT22;9939;49.246;9.106;2023-02-01T04:50:33;4.90;99.90
19586;DHT22;9939;49.246;9.106;2023-02-01T04:53:00;5.00;99.90
19586;DHT22;9939;49.246;9.106;2023-02-01T04:55:27;5.00;99.90
19586;DHT22;9939;49.246;9.106;2023-02-01T04:57:54;5.00;99.90
19586;DHT22;9939;49.246;9.106;2023-02-01T05:00:20;5.00;99.90
19586;DHT22;9939;49.246;9.106;2023-02-01T05:02:48;5.10;99.90
19586;DHT22;9939;49.246;9.106;2023-02-01T05:05:14;5.00;99.90
19586;DHT22;9939;49.246;9.106;2023-02-01T05:07:41;5.00;99.90
19586;DHT22;9939;49.246;9.106;2023-02-01T05:10:08;5.00;99.90
19586;DHT22;9939;49.246;9.106;2023-02-01T05:12:35;5.10;99.90
19586;DHT22;9939;49.246;9.106;2023-02-01T05:15:20;5.10;99.90
19586;DHT22;9939;49.246;9.106;2023-02-01T05:17:47;5.10;99.90
19586;DHT22;9939;49.246;9.106;2023-02-01T05:20:14;5.10;99.90
19586;DHT22;9939;49.246;9.106;2023-02-01T05:22:41;5.10;99.90
19586;DHT22;9939;49.246;9.106;2023-02-01T05:25:08;5.10;99.90
19586;DHT22;9939;49.246;9.106;2023-02-01T05:27:35;5.10;99.90
19586;DHT22;9939;49.246;9.106;2023-02-01T05:30:03;5.10;99.90
19586;DHT22;9939;49.246;9.106;2023-02-01T05:32:30;5.10;99.90
19586;DHT22;9939;49.246;9.106;2023-02-01T05:34:57;5.10;99.90
19586;DHT22;9939;49.246;9.106;2023-02-01T05:37:24;5.10;99.90
19586;DHT22;9939;49.246;9.106;2023-02-01T05:39:51;5.00;99.90
19586;DHT22;9939;49.246;9.106;2023-02-01T05:42:18;5.10;99.90
19586;DHT22;9939;49.246;9.106;2023-02-01T05:44:45;5.00;99.90
19586;DHT22;9939;49.246;9.106;2023-02-01T05:47:12;5.00;99.90
19586;DHT22;9939;49.246;9.106;2023-02-01T05:49:39;5.10;99.90
19586;DHT22;9939;49.246;9.106;2023-02-01T05:52:05;5.00;99.90
19586;DHT22;9939;49.246;9.106;2023-02-01T05:54:32;5.00;99.90
19586;DHT22;9939;49.246;9.106;2023-02-01T05:56:59;5.00;99.90
19586;DHT22;9939;49.246;9.106;2023-02-01T05:59:26;5.00;99.90
19586;DHT22;9939;49.246;9.106;2023-02-01T06:01:53;5.00;99.90
19586;DHT22;9939;49.246;9.106;2023-02-01T06:04:20;5.00;99.90
19586;DHT22;9939;49.246;9.106;2023-02-01T06:06:46;5.10;99.90
19586;DHT22;9939;49.246;9.106;2023-02-01T06:09:14;5.00;99.90
19586;DHT22;9939;49.246;9.106;2023-02-01T06:11:40;5.10;99.90
19586;DHT22;9939;49.246;9.106;2023-02-01T06:14:07;5.00;99.90
19586;DHT22;9939;49.246;9.106;2023-02-01T06:16:34;5.00;99.90
19586;DHT22;9939;49.246;9.106;2023-02-01T06:19:01;5.00;99.90
19586;DHT22;9939;49.246;9.106;2023-02-01T06:21:28;4.90;99.90
19586;DHT22;9939;49.246;9.106;2023-02-01T06:23:55;4.80;99.90
19586;DHT22;9939;49.246;9.106;2023-02-01T06:26:24;4.60;99.90
19586;DHT22;9939;49.246;9.106;2023-02-01T06:28:50;4.60;99.90
19586;DHT22;9939;49.246;9.106;2023-02-01T06:31:17;4.50;99.90
19586;DHT22;9939;49.246;9.106;2023-02-01T06:33:44;4.50;99.90
19586;DHT22;9939;49.246;9.106;2023-02-01T06:36:13;4.50;99.90
19586;DHT22;9939;49.246;9.106;2023-02-01T06:38:41;4.60;99.90
19586;DHT22;9939;49.246;9.106;2023-02-01T06:41:08;4.60;99.90
19586;DHT22;9939;49.246;9.106;2023-02-01T06:43:35;4.60;99.90
19586;DHT22;9939;49.246;9.106;2023-02-01T06:46:05;4.70;99.90
19586;DHT22;9939;49.246;9.106;2023-02-01T06:48:32;4.70;99.90
19586;DHT22;9939;49.246;9.106;2023-02-01T06:50:59;4.70;99.90
19586;DHT22;9939;49.246;9.106;2023-02-01T06:53:26;4.70;99.90
19586;DHT22;9939;49.246;9.106;2023-02-01T06:55:57;4.70;99.90
19586;DHT22;9939;49.246;9.106;2023-02-01T06:58:24;4.80;99.90
19586;DHT22;9939;49.246;9.106;2023-02-01T07:00:51;4.80;99.90
19586;DHT22;9939;49.246;9.106;2023-02-01T07:03:20;4.80;99.90
19586;DHT22;9939;49.246;9.106;2023-02-01T07:05:47;4.80;99.90
19586;DHT22;9939;49.246;9.106;2023-02-01T07:08:14;4.70;99.90
19586;DHT22;9939;49.246;9.106;2023-02-01T07:10:40;4.80;99.90
19586;DHT22;9939;49.246;9.106;2023-02-01T07:13:07;4.80;99.90
19586;DHT22;9939;49.246;9.106;2023-02-01T07:15:34;4.80;99.90
19586;DHT22;9939;49.246;9.106;2023-02-01T07:18:01;4.80;99.90
19586;DHT22;9939;49.246;9.106;2023-02-01T07:20:27;4.70;99.90
19586;DHT22;9939;49.246;9.106;2023-02-01T07:22:55;4.80;99.90
19586;DHT22;9939;49.246;9.106;2023-02-01T07:25:23;4.80;99.90
19586;DHT22;9939;49.246;9.106;2023-02-01T07:27:49;4.80;99.90
19586;DHT22;9939;49.246;9.106;2023-02-01T07:30:16;4.80;99.90
19586;DHT22;9939;49.246;9.106;2023-02-01T07:32:43;4.80;99.90
19586;DHT22;9939;49.246;9.106;2023-02-01T07:35:10;4.80;99.90
19586;DHT22;9939;49.246;9.106;2023-02-01T07:37:37;4.90;99.90
19586;DHT22;9939;49.246;9.106;2023-02-01T07:40:03;4.80;99.90
19586;DHT22;9939;49.246;9.106;2023-02-01T07:42:31;4.80;99.90
19586;DHT22;9939;49.246;9.106;2023-02-01T07:44:58;4.80;99.90
19586;DHT22;9939;49.246;9.106;2023-02-01T07:47:40;4.70;99.90
19586;DHT22;9939;49.246;9.106;2023-02-01T07:50:07;4.70;99.90
19586;DHT22;9939;49.246;9.106;2023-02-01T07:52:34;4.70;99.90
19586;DHT22;9939;49.246;9.106;2023-02-01T07:55:01;4.70;99.90
19586;DHT22;9939;49.246;9.106;2023-02-01T07:57:28;4.80;99.90
19586;DHT22;9939;49.246;9.106;2023-02-01T07:59:54;4.90;99.90
19586;DHT22;9939;49.246;9.106;2023-02-01T08:02:40;5.00;99.90
19586;DHT22;9939;49.246;9.106;2023-02-01T08:05:07;5.10;99.90
19586;DHT22;9939;49.246;9.106;2023-02-01T08:07:35;5.10;99.90
19586;DHT22;9939;49.246;9.106;2023-02-01T08:10:02;5.10;99.90
19586;DHT22;9939;49.246;9.106;2023-02-01T08:12:29;5.10;99.90
19586;DHT22;9939;49.246;9.106;2023-02-01T08:14:55;5.10;99.90
19586;DHT22;9939;49.246;9.106;2023-02-01T08:17:22;5.10;99.90
19586;DHT22;9939;49.246;9.106;2023-02-01T08:19:49;5.20;99.90
19586;DHT22;9939;49.246;9.106;2023-02-01T08:22:16;5.30;99.90
19586;DHT22;9939;49.246;9.106;2023-02-01T08:24:43;5.30;99.90
19586;DHT22;9939;49.246;9.106;2023-02-01T08:27:10;5.30;99.90
19586;DHT22;9939;49.246;9.106;2023-02-01T08:29:36;5.20;99.90
19586;DHT22;9939;49.246;9.106;2023-02-01T08:32:03;5.30;99.90
19586;DHT22;9939;49.246;9.106;2023-02-01T08:34:30;5.40;99.90
19586;DHT22;9939;49.246;9.106;2023-02-01T08:37:00;5.40;99.90
19586;DHT22;9939;49.246;9.106;2023-02-01T08:39:27;5.50;99.90
19586;DHT22;9939;49.246;9.106;2023-02-01T08:41:54;5.40;99.90
19586;DHT22;9939;49.246;9.106;2023-02-01T08:44:39;5.40;99.90
19586;DHT22;9939;49.246;9.106;2023-02-01T08:47:06;5.40;99.90
19586;DHT22;9939;49.246;9.106;2023-02-01T08:49:33;5.40;99.90
19586;DHT22;9939;49.246;9.106;2023-02-01T08:52:00;5.40;99.90
19586;DHT22;9939;49.246;9.106;2023-02-01T08:54:40;5.20;99.90
19586;DHT22;9939;49.246;9.106;2023-02-01T08:57:08;5.10;99.90
19586;DHT22;9939;49.246;9.106;2023-02-01T08:59:36;5.00;99.90
19586;DHT22;9939;49.246;9.106;2023-02-01T09:02:03;5.00;99.90
19586;DHT22;9939;49.246;9.106;2023-02-01T09:04:29;4.90;99.90
19586;DHT22;9939;49.246;9.106;2023-02-01T09:06:56;4.90;99.90
19586;DHT22;9939;49.246;9.106;2023-02-01T09:09:23;5.10;99.90
19586;DHT22;9939;49.246;9.106;2023-02-01T09:11:50;5.20;99.90
19586;DHT22;9939;49.246;9.106;2023-02-01T09:14:17;5.60;99.90
19586;DHT22;9939;49.246;9.106;2023-02-01T09:16:44;5.70;99.90
19586;DHT22;9939;49.246;9.106;2023-02-01T09:19:10;5.50;99.90
19586;DHT22;9939;49.246;9.106;2023-02-01T09:21:52;5.40;99.90
19586;DHT22;9939;49.246;9.106;2023-02-01T09:24:19;5.40;99.90
19586;DHT22;9939;49.246;9.106;2023-02-01T09:26:46;5.40;99.90
19586;DHT22;9939;49.246;9.106;2023-02-01T09:29:12;5.40;99.90
19586;DHT22;9939;49.246;9.106;2023-02-01T09:31:39;5.40;99.90
19586;DHT22;9939;49.246;9.106;2023-02-01T09:34:12;5.50;99.90
19586;DHT22;9939;49.246;9.106;2023-02-01T09:36:39;5.50;99.90
19586;DHT22;9939;49.246;9.106;2023-02-01T09:39:05;5.70;99.90
19586;DHT22;9939;49.246;9.106;2023-02-01T09:41:38;5.70;99.90
19586;DHT22;9939;49.246;9.106;2023-02-01T09:47:01;5.80;99.90
19586;DHT22;9939;49.246;9.106;2023-02-01T09:49:29;5.70;99.90
19586;DHT22;9939;49.246;9.106;2023-02-01T09:51:56;5.80;99.90
19586;DHT22;9939;49.246;9.106;2023-02-01T09:54:45;5.80;99.90
19586;DHT22;9939;49.246;9.106;2023-02-01T09:57:14;5.70;99.90
19586;DHT22;9939;49.246;9.106;2023-02-01T10:02:19;6.00;99.90
19586;DHT22;9939;49.246;9.106;2023-02-01T10:04:47;6.20;99.90
19586;DHT22;9939;49.246;9.106;2023-02-01T10:09:52;6.40;99.90
19586;DHT22;9939;49.246;9.106;2023-02-01T10:22:44;5.60;99.90
19586;DHT22;9939;49.246;9.106;2023-02-01T10:28:08;5.90;99.90
19586;DHT22;9939;49.246;9.106;2023-02-01T10:30:45;8.30;99.90
19586;DHT22;9939;49.246;9.106;2023-02-01T10:35:39;8.50;99.90
19586;DHT22;9939;49.246;9.106;2023-02-01T10:38:12;8.20;99.90
19586;DHT22;9939;49.246;9.106;2023-02-01T10:40:42;7.70;99.90
19586;DHT22;9939;49.246;9.106;2023-02-01T10:43:09;7.50;99.90
19586;DHT22;9939;49.246;9.106;2023-02-01T10:45:36;7.10;99.90
19586;DHT22;9939;49.246;9.106;2023-02-01T10:48:04;6.70;99.90
19586;DHT22;9939;49.246;9.106;2023-02-01T10:51:06;6.60;99.90
19586;DHT22;9939;49.246;9.106;2023-02-01T10:53:35;6.60;99.90
19586;DHT22;9939;49.246;9.106;2023-02-01T10:56:07;6.50;99.90
19586;DHT22;9939;49.246;9.106;2023-02-01T10:58:34;6.70;99.90
19586;DHT22;9939;49.246;9.106;2023-02-01T11:01:04;6.80;99.90
19586;DHT22;9939;49.246;9.106;2023-02-01T11:03:39;6.80;99.90
19586;DHT22;9939;49.246;9.106;2023-02-01T11:08:50;7.00;99.90
19586;DHT22;9939;49.246;9.106;2023-02-01T11:11:17;6.60;99.90
19586;DHT22;9939;49.246;9.106;2023-02-01T11:13:51;6.00;99.90
19586;DHT22;9939;49.246;9.106;2023-02-01T11:16:18;5.70;99.90
19586;DHT22;9939;49.246;9.106;2023-02-01T11:18:46;5.60;99.90
19586;DHT22;9939;49.246;9.106;2023-02-01T11:21:19;5.40;99.90
19586;DHT22;9939;49.246;9.106;2023-02-01T11:23:47;5.30;99.90
19586;DHT22;9939;49.246;9.106;2023-02-01T11:26:14;5.30;99.90
19586;DHT22;9939;49.246;9.106;2023-02-01T11:28:53;5.30;99.90
19586;DHT22;9939;49.246;9.106;2023-02-01T11:31:21;5.30;99.90
19586;DHT22;9939;49.246;9.106;2023-02-01T11:33:50;5.30;99.90
19586;DHT22;9939;49.246;9.106;2023-02-01T11:36:21;5.50;99.90
19586;DHT22;9939;49.246;9.106;2023-02-01T11:38:54;5.70;99.90
19586;DHT22;9939;49.246;9.106;2023-02-01T11:43:55;5.90;99.90
19586;DHT22;9939;49.246;9.106;2023-02-01T11:46:24;6.20;99.90
19586;DHT22;9939;49.246;9.106;2023-02-01T11:48:52;6.50;99.90
19586;DHT22;9939;49.246;9.106;2023-02-01T11:51:28;6.60;99.90
19586;DHT22;9939;49.246;9.106;2023-02-01T12:07:40;5.90;99.90
19586;DHT22;9939;49.246;9.106;2023-02-01T12:12:36;5.80;99.90
19586;DHT22;9939;49.246;9.106;2023-02-01T12:26:26;6.20;99.90
19586;DHT22;9939;49.246;9.106;2023-02-01T12:28:59;6.20;99.90
19586;DHT22;9939;49.246;9.106;2023-02-01T12:39:26;6.30;99.90
19586;DHT22;9939;49.246;9.106;2023-02-01T12:47:03;6.60;99.90
19586;DHT22;9939;49.246;9.106;2023-02-01T12:52:02;6.90;99.90
19586;DHT22;9939;49.246;9.106;2023-02-01T12:56:59;6.90;99.90
19586;DHT22;9939;49.246;9.106;2023-02-01T12:59:33;7.00;99.90
19586;DHT22;9939;49.246;9.106;2023-02-01T13:02:04;7.10;99.90
19586;DHT22;9939;49.246;9.106;2023-02-01T13:04:38;7.20;99.90
19586;DHT22;9939;49.246;9.106;2023-02-01T13:07:19;6.90;99.90
19586;DHT22;9939;49.246;9.106;2023-02-01T13:09:52;6.70;99.90
19586;DHT22;9939;49.246;9.106;2023-02-01T13:12:22;6.70;99.90
19586;DHT22;9939;49.246;9.106;2023-02-01T13:14:52;6.70;99.90
19586;DHT22;9939;49.246;9.106;2023-02-01T13:17:22;6.80;99.90
19586;DHT22;9939;49.246;9.106;2023-02-01T13:19:59;6.80;99.90
19586;DHT22;9939;49.246;9.106;2023-02-01T13:22:34;6.90;99.90
19586;DHT22;9939;49.246;9.106;2023-02-01T13:27:36;6.70;99.90
19586;DHT22;9939;49.246;9.106;2023-02-01T13:38:14;6.90;99.90
19586;DHT22;9939;49.246;9.106;2023-02-01T13:40:55;6.70;99.90
19586;DHT22;9939;49.246;9.106;2023-02-01T13:43:29;6.60;99.90
19586;DHT22;9939;49.246;9.106;2023-02-01T13:46:01;6.50;99.90
19586;DHT22;9939;49.246;9.106;2023-02-01T13:48:31;6.50;99.90
19586;DHT22;9939;49.246;9.106;2023-02-01T13:51:01;6.50;99.90
19586;DHT22;9939;49.246;9.106;2023-02-01T13:53:32;6.60;99.90
19586;DHT22;9939;49.246;9.106;2023-02-01T13:56:03;6.60;99.90
19586;DHT22;9939;49.246;9.106;2023-02-01T13:58:37;6.60;99.90
19586;DHT22;9939;49.246;9.106;2023-02-01T14:11:32;6.60;99.90
19586;DHT22;9939;49.246;9.106;2023-02-01T14:17:30;6.50;99.90
19586;DHT22;9939;49.246;9.106;2023-02-01T14:19:32;6.40;99.90
19586;DHT22;9939;49.246;9.106;2023-02-01T14:24:41;6.50;99.90
19586;DHT22;9939;49.246;9.106;2023-02-01T14:29:40;6.40;99.90
19586;DHT22;9939;49.246;9.106;2023-02-01T14:32:18;6.40;99.90
19586;DHT22;9939;49.246;9.106;2023-02-01T14:42:29;6.40;99.90
19586;DHT22;9939;49.246;9.106;2023-02-01T14:47:42;6.40;99.90
19586;DHT22;9939;49.246;9.106;2023-02-01T14:52:37;6.40;99.90
19586;DHT22;9939;49.246;9.106;2023-02-01T14:55:14;6.40;99.90
19586;DHT22;9939;49.246;9.106;2023-02-01T14:57:42;6.40;99.90
19586;DHT22;9939;49.246;9.106;2023-02-01T15:02:40;6.40;99.90
19586;DHT22;9939;49.246;9.106;2023-02-01T15:05:20;6.40;99.90
19586;DHT22;9939;49.246;9.106;2023-02-01T15:07:49;6.40;99.90
19586;DHT22;9939;49.246;9.106;2023-02-01T15:10:17;6.40;99.90
19586;DHT22;9939;49.246;9.106;2023-02-01T15:12:45;6.40;99.90
19586;DHT22;9939;49.246;9.106;2023-02-01T15:17:49;6.30;99.90
19586;DHT22;9939;49.246;9.106;2023-02-01T15:20:26;6.40;99.90
19586;DHT22;9939;49.246;9.106;2023-02-01T15:22:55;6.40;99.90
19586;DHT22;9939;49.246;9.106;2023-02-01T15:25:34;6.30;99.90
19586;DHT22;9939;49.246;9.106;2023-02-01T15:28:03;6.40;99.90
19586;DHT22;9939;49.246;9.106;2023-02-01T15:30:31;6.40;99.90
19586;DHT22;9939;49.246;9.106;2023-02-01T15:33:13;6.30;99.90
19586;DHT22;9939;49.246;9.106;2023-02-01T15:35:46;6.30;99.90
19586;DHT22;9939;49.246;9.106;2023-02-01T15:43:20;6.20;99.90
19586;DHT22;9939;49.246;9.106;2023-02-01T15:45:48;6.20;99.90
19586;DHT22;9939;49.246;9.106;2023-02-01T15:48:21;6.20;99.90
19586;DHT22;9939;49.246;9.106;2023-02-01T15:50:49;6.10;99.90
19586;DHT22;9939;49.246;9.106;2023-02-01T15:53:18;6.20;99.90
19586;DHT22;9939;49.246;9.106;2023-02-01T15:55:46;6.10;99.90
19586;DHT22;9939;49.246;9.106;2023-02-01T15:58:17;6.20;99.90
19586;DHT22;9939;49.246;9.106;2023-02-01T16:00:46;6.10;99.90
19586;DHT22;9939;49.246;9.106;2023-02-01T16:03:24;6.20;99.90
19586;DHT22;9939;49.246;9.106;2023-02-01T16:05:58;6.10;99.90
19586;DHT22;9939;49.246;9.106;2023-02-01T16:08:26;6.20;99.90
19586;DHT22;9939;49.246;9.106;2023-02-01T16:10:54;6.10;99.90
19586;DHT22;9939;49.246;9.106;2023-02-01T16:13:25;6.10;99.90
19586;DHT22;9939;49.246;9.106;2023-02-01T16:15:52;6.10;99.90
19586;DHT22;9939;49.246;9.106;2023-02-01T16:18:19;6.10;99.90
19586;DHT22;9939;49.246;9.106;2023-02-01T16:20:47;6.10;99.90
19586;DHT22;9939;49.246;9.106;2023-02-01T16:23:13;6.10;99.90
19586;DHT22;9939;49.246;9.106;2023-02-01T16:25:40;6.10;99.90
19586;DHT22;9939;49.246;9.106;2023-02-01T16:28:07;6.10;99.90
19586;DHT22;9939;49.246;9.106;2023-02-01T16:30:35;6.00;99.90
19586;DHT22;9939;49.246;9.106;2023-02-01T16:33:02;6.00;99.90
19586;DHT22;9939;49.246;9.106;2023-02-01T16:35:38;6.00;99.90
19586;DHT22;9939;49.246;9.106;2023-02-01T16:38:09;6.10;99.90
19586;DHT22;9939;49.246;9.106;2023-02-01T16:40:40;6.00;99.90
19586;DHT22;9939;49.246;9.106;2023-02-01T16:43:17;6.00;99.90
19586;DHT22;9939;49.246;9.106;2023-02-01T16:45:44;6.10;99.90
19586;DHT22;9939;49.246;9.106;2023-02-01T16:48:17;6.00;99.90
19586;DHT22;9939;49.246;9.106;2023-02-01T16:50:46;6.00;99.90
19586;DHT22;9939;49.246;9.106;2023-02-01T16:53:14;6.00;99.90
19586;DHT22;9939;49.246;9.106;2023-02-01T16:55:42;6.10;99.90
19586;DHT22;9939;49.246;9.106;2023-02-01T16:58:10;6.00;99.90
19586;DHT22;9939;49.246;9.106;2023-02-01T17:00:36;6.00;99.90
19586;DHT22;9939;49.246;9.106;2023-02-01T17:03:04;6.00;99.90
19586;DHT22;9939;49.246;9.106;2023-02-01T17:05:32;6.10;99.90
19586;DHT22;9939;49.246;9.106;2023-02-01T17:08:00;6.00;99.90
19586;DHT22;9939;49.246;9.106;2023-02-01T17:10:30;6.00;99.90
19586;DHT22;9939;49.246;9.106;2023-02-01T17:13:00;6.00;99.90
19586;DHT22;9939;49.246;9.106;2023-02-01T17:15:27;6.00;99.90
19586;DHT22;9939;49.246;9.106;2023-02-01T17:17:55;6.00;99.90
19586;DHT22;9939;49.246;9.106;2023-02-01T17:20:24;6.00;99.90
19586;DHT22;9939;49.246;9.106;2023-02-01T17:22:53;6.10;99.90
19586;DHT22;9939;49.246;9.106;2023-02-01T17:25:21;6.00;99.90
19586;DHT22;9939;49.246;9.106;2023-02-01T17:27:48;6.00;99.90
19586;DHT22;9939;49.246;9.106;2023-02-01T17:30:16;6.10;99.90
19586;DHT22;9939;49.246;9.106;2023-02-01T17:32:42;6.10;99.90
19586;DHT22;9939;49.246;9.106;2023-02-01T17:35:15;6.00;99.90
19586;DHT22;9939;49.246;9.106;2023-02-01T17:37:43;6.10;99.90
19586;DHT22;9939;49.246;9.106;2023-02-01T17:40:10;6.10;99.90
19586;DHT22;9939;49.246;9.106;2023-02-01T17:42:37;6.10;99.90
19586;DHT22;9939;49.246;9.106;2023-02-01T17:47:52;6.00;99.90
19586;DHT22;9939;49.246;9.106;2023-02-01T17:50:19;6.10;99.90
19586;DHT22;9939;49.246;9.106;2023-02-01T17:52:45;6.10;99.90
19586;DHT22;9939;49.246;9.106;2023-02-01T17:55:19;6.10;99.90
19586;DHT22;9939;49.246;9.106;2023-02-01T17:57:48;6.10;99.90
19586;DHT22;9939;49.246;9.106;2023-02-01T18:00:15;6.00;99.90
19586;DHT22;9939;49.246;9.106;2023-02-01T18:02:43;6.10;99.90
19586;DHT22;9939;49.246;9.106;2023-02-01T18:05:21;6.10;99.90
19586;DHT22;9939;49.246;9.106;2023-02-01T18:07:49;6.10;99.90
19586;DHT22;9939;49.246;9.106;2023-02-01T18:10:16;6.10;99.90
19586;DHT22;9939;49.246;9.106;2023-02-01T18:12:43;6.00;99.90
19586;DHT22;9939;49.246;9.106;2023-02-01T18:15:17;6.00;99.90
19586;DHT22;9939;49.246;9.106;2023-02-01T18:17:45;6.00;99.90
19586;DHT22;9939;49.246;9.106;2023-02-01T18:20:14;6.00;99.90
19586;DHT22;9939;49.246;9.106;2023-02-01T18:22:42;6.00;99.90
19586;DHT22;9939;49.246;9.106;2023-02-01T18:25:31;6.00;99.90
19586;DHT22;9939;49.246;9.106;2023-02-01T18:27:56;6.00;99.90
19586;DHT22;9939;49.246;9.106;2023-02-01T18:30:24;5.90;99.90
19586;DHT22;9939;49.246;9.106;2023-02-01T18:32:50;5.80;99.90
19586;DHT22;9939;49.246;9.106;2023-02-01T18:37:44;5.80;99.90
19586;DHT22;9939;49.246;9.106;2023-02-01T18:40:15;5.80;99.90
19586;DHT22;9939;49.246;9.106;2023-02-01T18:42:43;5.80;99.90
19586;DHT22;9939;49.246;9.106;2023-02-01T18:45:52;5.80;99.90
19586;DHT22;9939;49.246;9.106;2023-02-01T18:48:00;5.80;99.90
19586;DHT22;9939;49.246;9.106;2023-02-01T18:50:30;5.80;99.90
19586;DHT22;9939;49.246;9.106;2023-02-01T18:52:58;5.70;99.90
19586;DHT22;9939;49.246;9.106;2023-02-01T18:55:25;5.80;99.90
19586;DHT22;9939;49.246;9.106;2023-02-01T18:57:52;5.80;99.90